sensor_id;sensor_type;location;lat;lon;timestamp;P1;durP1;ratioP1;P2;durP2;ratioP2
2408;SDS011;8463;48.094;7.970;2022-11-23T00:00:24;4.07;;;1.20;;
2408;SDS011;8463;48.094;7.970;2022-11-23T00:02:57;1.27;;;0.97;;
2408;SDS011;8463;48.094;7.970;2022-11-23T00:05:24;1.47;;;1.30;;
2408;SDS011;8463;48.094;7.970;2022-11-23T00:07:50;3.67;;;1.33;;
2408;SDS011;8463;48.094;7.970;2022-11-23T00:10:16;6.03;;;1.00;;
2408;SDS011;8463;48.094;7.970;2022-11-23T00:12:42;6.33;;;1.07;;
2408;SDS011;8463;48.094;7.970;2022-11-23T00:15:08;3.60;;;1.40;;
2408;SDS011;8463;48.094;7.970;2022-11-23T00:17:36;2.37;;;0.90;;
2408;SDS011;8463;48.094;7.970;2022-11-23T00:20:02;1.60;;;0.87;;
2408;SDS011;8463;48.094;7.970;2022-11-23T00:22:28;1.97;;;1.13;;
2408;SDS011;8463;48.094;7.970;2022-11-23T00:24:54;1.53;;;0.87;;
2408;SDS011;8463;48.094;7.970;2022-11-23T00:27:19;2.17;;;0.73;;
2408;SDS011;8463;48.094;7.970;2022-11-23T00:29:45;3.90;;;1.10;;
2408;SDS011;8463;48.094;7.970;2022-11-23T00:32:11;2.33;;;1.00;;
2408;SDS011;8463;48.094;7.970;2022-11-23T00:34:36;2.70;;;1.23;;
2408;SDS011;8463;48.094;7.970;2022-11-23T00:37:02;3.50;;;1.10;;
2408;SDS011;8463;48.094;7.970;2022-11-23T00:39:27;1.43;;;0.60;;
2408;SDS011;8463;48.094;7.970;2022-11-23T00:41:53;1.97;;;1.13;;
2408;SDS011;8463;48.094;7.970;2022-11-23T00:44:18;3.50;;;1.00;;
2408;SDS011;8463;48.094;7.970;2022-11-23T00:46:44;1.30;;;0.80;;
2408;SDS011;8463;48.094;7.970;2022-11-23T00:49:10;2.10;;;1.17;;
2408;SDS011;8463;48.094;7.970;2022-11-23T00:51:35;5.33;;;2.47;;
2408;SDS011;8463;48.094;7.970;2022-11-23T00:54:02;3.97;;;1.10;;
2408;SDS011;8463;48.094;7.970;2022-11-23T00:56:29;4.07;;;1.07;;
2408;SDS011;8463;48.094;7.970;2022-11-23T00:58:56;1.60;;;0.90;;
2408;SDS011;8463;48.094;7.970;2022-11-23T01:01:24;3.40;;;0.90;;
2408;SDS011;8463;48.094;7.970;2022-11-23T01:03:53;1.63;;;1.10;;
2408;SDS011;8463;48.094;7.970;2022-11-23T01:06:27;3.00;;;1.20;;
2408;SDS011;8463;48.094;7.970;2022-11-23T01:08:58;8.23;;;2.50;;
2408;SDS011;8463;48.094;7.970;2022-11-23T01:11:27;1.57;;;1.03;;
2408;SDS011;8463;48.094;7.970;2022-11-23T01:13:53;2.33;;;1.27;;
2408;SDS011;8463;48.094;7.970;2022-11-23T01:16:20;2.87;;;1.43;;
2408;SDS011;8463;48.094;7.970;2022-11-23T01:18:54;9.07;;;1.33;;
2408;SDS011;8463;48.094;7.970;2022-11-23T01:21:21;1.67;;;1.00;;
2408;SDS011;8463;48.094;7.970;2022-11-23T01:23:48;3.03;;;1.13;;
2408;SDS011;8463;48.094;7.970;2022-11-23T01:26:14;1.97;;;1.13;;
2408;SDS011;8463;48.094;7.970;2022-11-23T01:28:39;5.13;;;1.50;;
2408;SDS011;8463;48.094;7.970;2022-11-23T01:31:06;3.40;;;1.30;;
2408;SDS011;8463;48.094;7.970;2022-11-23T01:33:34;8.53;;;1.60;;
2408;SDS011;8463;48.094;7.970;2022-11-23T01:36:00;2.77;;;0.73;;
2408;SDS011;8463;48.094;7.970;2022-11-23T01:38:32;2.77;;;1.50;;
2408;SDS011;8463;48.094;7.970;2022-11-23T01:40:57;3.07;;;1.03;;
2408;SDS011;8463;48.094;7.970;2022-11-23T01:43:23;2.57;;;1.00;;
2408;SDS011;8463;48.094;7.970;2022-11-23T01:48:18;4.20;;;1.10;;
2408;SDS011;8463;48.094;7.970;2022-11-23T01:50:49;1.30;;;1.00;;
2408;SDS011;8463;48.094;7.970;2022-11-23T01:53:17;5.83;;;1.53;;
2408;SDS011;8463;48.094;7.970;2022-11-23T01:55:45;2.30;;;0.80;;
2408;SDS011;8463;48.094;7.970;2022-11-23T01:58:13;2.90;;;0.97;;
2408;SDS011;8463;48.094;7.970;2022-11-23T02:00:41;6.67;;;1.50;;
2408;SDS011;8463;48.094;7.970;2022-11-23T02:03:08;3.03;;;0.90;;
2408;SDS011;8463;48.094;7.970;2022-11-23T02:05:34;2.43;;;1.13;;
2408;SDS011;8463;48.094;7.970;2022-11-23T02:08:05;4.97;;;1.93;;
2408;SDS011;8463;48.094;7.970;2022-11-23T02:10:32;7.47;;;1.40;;
2408;SDS011;8463;48.094;7.970;2022-11-23T02:13:06;1.93;;;0.90;;
2408;SDS011;8463;48.094;7.970;2022-11-23T02:15:34;2.77;;;0.83;;
2408;SDS011;8463;48.094;7.970;2022-11-23T02:18:01;3.70;;;0.97;;
2408;SDS011;8463;48.094;7.970;2022-11-23T02:20:28;2.87;;;1.23;;
2408;SDS011;8463;48.094;7.970;2022-11-23T02:28:18;6.93;;;2.73;;
2408;SDS011;8463;48.094;7.970;2022-11-23T02:30:49;1.63;;;0.70;;
2408;SDS011;8463;48.094;7.970;2022-11-23T02:33:17;3.10;;;1.10;;
2408;SDS011;8463;48.094;7.970;2022-11-23T02:35:49;1.90;;;0.93;;
2408;SDS011;8463;48.094;7.970;2022-11-23T02:38:16;5.73;;;1.53;;
2408;SDS011;8463;48.094;7.970;2022-11-23T02:40:43;2.23;;;1.10;;
2408;SDS011;8463;48.094;7.970;2022-11-23T02:43:09;1.77;;;1.30;;
2408;SDS011;8463;48.094;7.970;2022-11-23T02:45:36;4.60;;;1.30;;
2408;SDS011;8463;48.094;7.970;2022-11-23T02:48:16;1.77;;;0.90;;
2408;SDS011;8463;48.094;7.970;2022-11-23T02:50:42;3.80;;;1.40;;
2408;SDS011;8463;48.094;7.970;2022-11-23T02:53:08;8.60;;;2.20;;
2408;SDS011;8463;48.094;7.970;2022-11-23T02:55:34;1.13;;;1.03;;
2408;SDS011;8463;48.094;7.970;2022-11-23T02:58:00;0.80;;;0.60;;
2408;SDS011;8463;48.094;7.970;2022-11-23T03:00:26;5.03;;;1.10;;
2408;SDS011;8463;48.094;7.970;2022-11-23T03:02:52;4.10;;;1.10;;
2408;SDS011;8463;48.094;7.970;2022-11-23T03:05:18;5.10;;;1.40;;
2408;SDS011;8463;48.094;7.970;2022-11-23T03:07:43;2.33;;;1.00;;
2408;SDS011;8463;48.094;7.970;2022-11-23T03:10:09;2.70;;;1.03;;
2408;SDS011;8463;48.094;7.970;2022-11-23T03:12:35;1.33;;;0.90;;
2408;SDS011;8463;48.094;7.970;2022-11-23T03:15:00;4.90;;;1.27;;
2408;SDS011;8463;48.094;7.970;2022-11-23T03:17:26;10.97;;;2.43;;
2408;SDS011;8463;48.094;7.970;2022-11-23T03:19:52;2.17;;;1.37;;
2408;SDS011;8463;48.094;7.970;2022-11-23T03:22:18;4.27;;;1.60;;
2408;SDS011;8463;48.094;7.970;2022-11-23T03:24:44;7.03;;;2.10;;
2408;SDS011;8463;48.094;7.970;2022-11-23T03:27:09;7.57;;;1.67;;
2408;SDS011;8463;48.094;7.970;2022-11-23T03:29:35;4.17;;;2.10;;
2408;SDS011;8463;48.094;7.970;2022-11-23T03:32:01;5.23;;;2.00;;
2408;SDS011;8463;48.094;7.970;2022-11-23T03:34:27;3.47;;;1.60;;
2408;SDS011;8463;48.094;7.970;2022-11-23T03:36:52;6.20;;;1.40;;
2408;SDS011;8463;48.094;7.970;2022-11-23T03:39:18;4.47;;;1.40;;
2408;SDS011;8463;48.094;7.970;2022-11-23T03:41:44;3.23;;;1.10;;
2408;SDS011;8463;48.094;7.970;2022-11-23T03:44:09;1.83;;;1.27;;
2408;SDS011;8463;48.094;7.970;2022-11-23T03:46:35;1.50;;;0.90;;
2408;SDS011;8463;48.094;7.970;2022-11-23T03:49:01;2.33;;;1.33;;
2408;SDS011;8463;48.094;7.970;2022-11-23T03:51:26;3.37;;;1.97;;
2408;SDS011;8463;48.094;7.970;2022-11-23T03:53:52;4.30;;;1.70;;
2408;SDS011;8463;48.094;7.970;2022-11-23T03:56:18;2.53;;;1.30;;
2408;SDS011;8463;48.094;7.970;2022-11-23T03:58:44;11.23;;;1.67;;
2408;SDS011;8463;48.094;7.970;2022-11-23T04:01:09;1.73;;;1.17;;
2408;SDS011;8463;48.094;7.970;2022-11-23T04:03:35;2.80;;;1.50;;
2408;SDS011;8463;48.094;7.970;2022-11-23T04:06:01;2.00;;;1.10;;
2408;SDS011;8463;48.094;7.970;2022-11-23T04:08:26;3.67;;;1.53;;
2408;SDS011;8463;48.094;7.970;2022-11-23T04:10:55;9.03;;;1.90;;
2408;SDS011;8463;48.094;7.970;2022-11-23T04:13:22;5.83;;;1.50;;
2408;SDS011;8463;48.094;7.970;2022-11-23T04:15:47;4.17;;;1.30;;
2408;SDS011;8463;48.094;7.970;2022-11-23T04:18:13;2.40;;;2.10;;
2408;SDS011;8463;48.094;7.970;2022-11-23T04:20:38;1.10;;;0.90;;
2408;SDS011;8463;48.094;7.970;2022-11-23T04:23:04;3.57;;;1.37;;
2408;SDS011;8463;48.094;7.970;2022-11-23T04:25:30;3.50;;;1.37;;
2408;SDS011;8463;48.094;7.970;2022-11-23T04:27:56;1.77;;;0.90;;
2408;SDS011;8463;48.094;7.970;2022-11-23T04:30:21;3.43;;;1.50;;
2408;SDS011;8463;48.094;7.970;2022-11-23T04:32:47;2.03;;;1.43;;
2408;SDS011;8463;48.094;7.970;2022-11-23T04:35:12;2.93;;;1.23;;
2408;SDS011;8463;48.094;7.970;2022-11-23T04:37:38;2.33;;;0.80;;
2408;SDS011;8463;48.094;7.970;2022-11-23T04:40:04;1.90;;;0.80;;
2408;SDS011;8463;48.094;7.970;2022-11-23T04:42:30;1.40;;;0.97;;
2408;SDS011;8463;48.094;7.970;2022-11-23T04:44:56;1.10;;;0.90;;
2408;SDS011;8463;48.094;7.970;2022-11-23T04:47:22;2.33;;;1.20;;
2408;SDS011;8463;48.094;7.970;2022-11-23T04:49:51;1.53;;;1.07;;
2408;SDS011;8463;48.094;7.970;2022-11-23T04:52:16;5.83;;;1.27;;
2408;SDS011;8463;48.094;7.970;2022-11-23T04:54:42;7.23;;;1.47;;
2408;SDS011;8463;48.094;7.970;2022-11-23T04:57:08;2.67;;;1.30;;
2408;SDS011;8463;48.094;7.970;2022-11-23T04:59:34;4.13;;;1.90;;
2408;SDS011;8463;48.094;7.970;2022-11-23T05:02:00;13.30;;;2.17;;
2408;SDS011;8463;48.094;7.970;2022-11-23T05:04:25;2.67;;;1.47;;
2408;SDS011;8463;48.094;7.970;2022-11-23T05:06:51;5.03;;;1.47;;
2408;SDS011;8463;48.094;7.970;2022-11-23T05:09:16;1.37;;;1.27;;
2408;SDS011;8463;48.094;7.970;2022-11-23T05:11:42;2.80;;;1.40;;
2408;SDS011;8463;48.094;7.970;2022-11-23T05:14:08;4.63;;;2.10;;
2408;SDS011;8463;48.094;7.970;2022-11-23T05:16:33;4.63;;;2.20;;
2408;SDS011;8463;48.094;7.970;2022-11-23T05:18:59;2.40;;;1.60;;
2408;SDS011;8463;48.094;7.970;2022-11-23T05:21:25;4.60;;;1.67;;
2408;SDS011;8463;48.094;7.970;2022-11-23T05:23:50;2.53;;;1.57;;
2408;SDS011;8463;48.094;7.970;2022-11-23T05:26:16;3.43;;;1.13;;
2408;SDS011;8463;48.094;7.970;2022-11-23T05:28:41;4.70;;;1.70;;
2408;SDS011;8463;48.094;7.970;2022-11-23T05:31:07;4.77;;;1.67;;
2408;SDS011;8463;48.094;7.970;2022-11-23T05:33:34;5.00;;;1.60;;
2408;SDS011;8463;48.094;7.970;2022-11-23T05:36:00;3.33;;;1.87;;
2408;SDS011;8463;48.094;7.970;2022-11-23T05:38:25;2.93;;;1.50;;
2408;SDS011;8463;48.094;7.970;2022-11-23T05:40:51;2.33;;;1.33;;
2408;SDS011;8463;48.094;7.970;2022-11-23T05:43:17;3.97;;;1.50;;
2408;SDS011;8463;48.094;7.970;2022-11-23T05:45:42;2.40;;;1.43;;
2408;SDS011;8463;48.094;7.970;2022-11-23T05:48:08;4.83;;;1.73;;
2408;SDS011;8463;48.094;7.970;2022-11-23T05:50:34;4.70;;;1.60;;
2408;SDS011;8463;48.094;7.970;2022-11-23T05:53:00;2.83;;;1.67;;
2408;SDS011;8463;48.094;7.970;2022-11-23T05:55:26;3.67;;;2.17;;
2408;SDS011;8463;48.094;7.970;2022-11-23T05:57:52;6.90;;;1.73;;
2408;SDS011;8463;48.094;7.970;2022-11-23T06:00:17;2.90;;;1.30;;
2408;SDS011;8463;48.094;7.970;2022-11-23T06:02:44;4.07;;;1.80;;
2408;SDS011;8463;48.094;7.970;2022-11-23T06:05:10;5.43;;;2.00;;
2408;SDS011;8463;48.094;7.970;2022-11-23T06:07:35;2.50;;;1.20;;
2408;SDS011;8463;48.094;7.970;2022-11-23T06:10:01;3.80;;;1.50;;
2408;SDS011;8463;48.094;7.970;2022-11-23T06:12:28;2.27;;;1.20;;
2408;SDS011;8463;48.094;7.970;2022-11-23T06:14:54;4.10;;;1.10;;
2408;SDS011;8463;48.094;7.970;2022-11-23T06:17:20;6.27;;;1.90;;
2408;SDS011;8463;48.094;7.970;2022-11-23T06:19:46;3.50;;;1.70;;
2408;SDS011;8463;48.094;7.970;2022-11-23T06:22:11;5.33;;;1.60;;
2408;SDS011;8463;48.094;7.970;2022-11-23T06:24:37;2.63;;;1.70;;
2408;SDS011;8463;48.094;7.970;2022-11-23T06:27:03;3.37;;;1.43;;
2408;SDS011;8463;48.094;7.970;2022-11-23T06:29:29;3.37;;;1.73;;
2408;SDS011;8463;48.094;7.970;2022-11-23T06:31:54;3.60;;;2.40;;
2408;SDS011;8463;48.094;7.970;2022-11-23T06:34:20;7.53;;;2.70;;
2408;SDS011;8463;48.094;7.970;2022-11-23T06:36:45;5.47;;;3.10;;
2408;SDS011;8463;48.094;7.970;2022-11-23T06:39:11;5.53;;;2.40;;
2408;SDS011;8463;48.094;7.970;2022-11-23T06:41:37;4.27;;;3.00;;
2408;SDS011;8463;48.094;7.970;2022-11-23T06:44:03;8.93;;;2.93;;
2408;SDS011;8463;48.094;7.970;2022-11-23T06:46:29;3.87;;;2.13;;
2408;SDS011;8463;48.094;7.970;2022-11-23T06:48:55;2.87;;;1.90;;
2408;SDS011;8463;48.094;7.970;2022-11-23T06:51:21;4.23;;;1.97;;
2408;SDS011;8463;48.094;7.970;2022-11-23T06:53:47;4.70;;;2.40;;
2408;SDS011;8463;48.094;7.970;2022-11-23T06:56:12;3.10;;;2.17;;
2408;SDS011;8463;48.094;7.970;2022-11-23T06:58:38;6.10;;;2.33;;
2408;SDS011;8463;48.094;7.970;2022-11-23T07:01:05;4.20;;;2.40;;
2408;SDS011;8463;48.094;7.970;2022-11-23T07:03:32;3.13;;;1.60;;
2408;SDS011;8463;48.094;7.970;2022-11-23T07:06:02;2.10;;;1.80;;
2408;SDS011;8463;48.094;7.970;2022-11-23T07:08:31;5.20;;;1.63;;
2408;SDS011;8463;48.094;7.970;2022-11-23T07:11:01;6.57;;;2.20;;
2408;SDS011;8463;48.094;7.970;2022-11-23T07:13:27;4.87;;;1.70;;
2408;SDS011;8463;48.094;7.970;2022-11-23T07:15:53;3.63;;;1.47;;
2408;SDS011;8463;48.094;7.970;2022-11-23T07:18:18;2.20;;;2.00;;
2408;SDS011;8463;48.094;7.970;2022-11-23T07:20:44;3.43;;;2.03;;
2408;SDS011;8463;48.094;7.970;2022-11-23T07:23:10;5.07;;;1.80;;
2408;SDS011;8463;48.094;7.970;2022-11-23T07:25:36;4.70;;;1.83;;
2408;SDS011;8463;48.094;7.970;2022-11-23T07:28:03;7.00;;;1.97;;
2408;SDS011;8463;48.094;7.970;2022-11-23T07:30:30;3.00;;;1.43;;
2408;SDS011;8463;48.094;7.970;2022-11-23T07:33:04;4.03;;;2.07;;
2408;SDS011;8463;48.094;7.970;2022-11-23T07:35:32;4.53;;;2.27;;
2408;SDS011;8463;48.094;7.970;2022-11-23T07:37:58;4.10;;;2.50;;
2408;SDS011;8463;48.094;7.970;2022-11-23T07:40:24;4.20;;;2.13;;
2408;SDS011;8463;48.094;7.970;2022-11-23T07:42:51;4.40;;;2.97;;
2408;SDS011;8463;48.094;7.970;2022-11-23T07:45:16;2.53;;;1.90;;
2408;SDS011;8463;48.094;7.970;2022-11-23T07:47:42;2.67;;;2.00;;
2408;SDS011;8463;48.094;7.970;2022-11-23T07:50:09;3.43;;;2.20;;
2408;SDS011;8463;48.094;7.970;2022-11-23T07:52:36;5.67;;;3.00;;
2408;SDS011;8463;48.094;7.970;2022-11-23T07:55:02;3.47;;;3.00;;
2408;SDS011;8463;48.094;7.970;2022-11-23T07:57:28;9.83;;;3.80;;
2408;SDS011;8463;48.094;7.970;2022-11-23T07:59:54;3.13;;;2.60;;
2408;SDS011;8463;48.094;7.970;2022-11-23T08:02:20;5.07;;;1.70;;
2408;SDS011;8463;48.094;7.970;2022-11-23T08:04:45;3.57;;;2.27;;
2408;SDS011;8463;48.094;7.970;2022-11-23T08:07:11;3.10;;;2.20;;
2408;SDS011;8463;48.094;7.970;2022-11-23T08:09:37;4.43;;;2.20;;
2408;SDS011;8463;48.094;7.970;2022-11-23T08:12:02;3.47;;;1.97;;
2408;SDS011;8463;48.094;7.970;2022-11-23T08:14:29;4.43;;;2.33;;
2408;SDS011;8463;48.094;7.970;2022-11-23T08:16:54;4.43;;;1.80;;
2408;SDS011;8463;48.094;7.970;2022-11-23T08:19:20;3.60;;;2.50;;
2408;SDS011;8463;48.094;7.970;2022-11-23T08:21:46;3.60;;;2.40;;
2408;SDS011;8463;48.094;7.970;2022-11-23T08:24:11;2.60;;;2.30;;
2408;SDS011;8463;48.094;7.970;2022-11-23T08:26:37;5.70;;;2.80;;
2408;SDS011;8463;48.094;7.970;2022-11-23T08:29:03;3.20;;;2.13;;
2408;SDS011;8463;48.094;7.970;2022-11-23T08:31:29;6.40;;;2.90;;
2408;SDS011;8463;48.094;7.970;2022-11-23T08:33:55;3.50;;;2.90;;
2408;SDS011;8463;48.094;7.970;2022-11-23T08:36:21;5.07;;;2.60;;
2408;SDS011;8463;48.094;7.970;2022-11-23T08:38:46;4.53;;;2.17;;
2408;SDS011;8463;48.094;7.970;2022-11-23T08:41:15;6.30;;;2.60;;
2408;SDS011;8463;48.094;7.970;2022-11-23T08:43:44;4.30;;;2.70;;
2408;SDS011;8463;48.094;7.970;2022-11-23T08:46:13;4.37;;;3.60;;
2408;SDS011;8463;48.094;7.970;2022-11-23T08:48:39;3.43;;;2.27;;
2408;SDS011;8463;48.094;7.970;2022-11-23T08:51:05;3.40;;;2.43;;
2408;SDS011;8463;48.094;7.970;2022-11-23T08:53:31;3.30;;;2.23;;
2408;SDS011;8463;48.094;7.970;2022-11-23T08:55:59;6.40;;;2.40;;
2408;SDS011;8463;48.094;7.970;2022-11-23T08:58:25;5.03;;;2.37;;
2408;SDS011;8463;48.094;7.970;2022-11-23T09:00:51;3.00;;;2.53;;
2408;SDS011;8463;48.094;7.970;2022-11-23T09:03:17;5.40;;;2.47;;
2408;SDS011;8463;48.094;7.970;2022-11-23T09:05:42;2.23;;;1.97;;
2408;SDS011;8463;48.094;7.970;2022-11-23T09:08:08;3.47;;;1.70;;
2408;SDS011;8463;48.094;7.970;2022-11-23T09:10:33;5.80;;;2.20;;
2408;SDS011;8463;48.094;7.970;2022-11-23T09:12:59;3.07;;;1.70;;
2408;SDS011;8463;48.094;7.970;2022-11-23T09:15:25;4.23;;;2.50;;
2408;SDS011;8463;48.094;7.970;2022-11-23T09:17:51;3.20;;;1.70;;
2408;SDS011;8463;48.094;7.970;2022-11-23T09:20:16;2.87;;;1.70;;
2408;SDS011;8463;48.094;7.970;2022-11-23T09:22:42;2.50;;;1.70;;
2408;SDS011;8463;48.094;7.970;2022-11-23T09:25:14;8.00;;;1.90;;
2408;SDS011;8463;48.094;7.970;2022-11-23T09:27:41;2.17;;;1.60;;
2408;SDS011;8463;48.094;7.970;2022-11-23T09:30:06;2.50;;;1.63;;
2408;SDS011;8463;48.094;7.970;2022-11-23T09:32:32;3.77;;;1.73;;
2408;SDS011;8463;48.094;7.970;2022-11-23T09:34:58;2.83;;;1.73;;
2408;SDS011;8463;48.094;7.970;2022-11-23T09:37:24;1.90;;;1.60;;
2408;SDS011;8463;48.094;7.970;2022-11-23T09:39:49;6.00;;;2.03;;
2408;SDS011;8463;48.094;7.970;2022-11-23T09:45:25;1.70;;;1.10;;
2408;SDS011;8463;48.094;7.970;2022-11-23T09:51:00;2.00;;;1.20;;
2408;SDS011;8463;48.094;7.970;2022-11-23T09:56:31;3.93;;;1.70;;
2408;SDS011;8463;48.094;7.970;2022-11-23T09:59:00;3.80;;;1.53;;
2408;SDS011;8463;48.094;7.970;2022-11-23T10:01:29;1.57;;;1.07;;
2408;SDS011;8463;48.094;7.970;2022-11-23T10:03:55;3.43;;;0.90;;
2408;SDS011;8463;48.094;7.970;2022-11-23T10:06:26;4.30;;;0.97;;
2408;SDS011;8463;48.094;7.970;2022-11-23T10:09:11;2.60;;;1.70;;
2408;SDS011;8463;48.094;7.970;2022-11-23T10:14:31;0.77;;;0.77;;
2408;SDS011;8463;48.094;7.970;2022-11-23T10:17:13;2.73;;;0.80;;
2408;SDS011;8463;48.094;7.970;2022-11-23T10:19:53;1.70;;;1.33;;
2408;SDS011;8463;48.094;7.970;2022-11-23T10:25:14;1.23;;;1.10;;
2408;SDS011;8463;48.094;7.970;2022-11-23T10:27:42;1.00;;;0.80;;
2408;SDS011;8463;48.094;7.970;2022-11-23T10:30:11;3.10;;;1.07;;
2408;SDS011;8463;48.094;7.970;2022-11-23T10:35:29;1.27;;;0.77;;
2408;SDS011;8463;48.094;7.970;2022-11-23T10:38:10;1.80;;;0.90;;
2408;SDS011;8463;48.094;7.970;2022-11-23T10:40:39;2.03;;;1.00;;
2408;SDS011;8463;48.094;7.970;2022-11-23T10:43:17;1.90;;;1.07;;
2408;SDS011;8463;48.094;7.970;2022-11-23T10:45:47;1.13;;;0.77;;
2408;SDS011;8463;48.094;7.970;2022-11-23T10:48:18;1.13;;;0.60;;
2408;SDS011;8463;48.094;7.970;2022-11-23T10:54:00;1.33;;;0.90;;
2408;SDS011;8463;48.094;7.970;2022-11-23T10:56:28;2.20;;;1.17;;
2408;SDS011;8463;48.094;7.970;2022-11-23T10:58:54;0.80;;;0.63;;
2408;SDS011;8463;48.094;7.970;2022-11-23T11:01:24;1.47;;;0.73;;
2408;SDS011;8463;48.094;7.970;2022-11-23T11:03:52;1.27;;;0.90;;
2408;SDS011;8463;48.094;7.970;2022-11-23T11:06:22;2.17;;;1.50;;
2408;SDS011;8463;48.094;7.970;2022-11-23T11:09:00;2.83;;;1.33;;
2408;SDS011;8463;48.094;7.970;2022-11-23T11:11:44;2.07;;;1.20;;
2408;SDS011;8463;48.094;7.970;2022-11-23T11:14:16;1.90;;;0.83;;
2408;SDS011;8463;48.094;7.970;2022-11-23T11:16:53;1.80;;;1.10;;
2408;SDS011;8463;48.094;7.970;2022-11-23T11:19:31;2.13;;;1.20;;
2408;SDS011;8463;48.094;7.970;2022-11-23T11:22:00;1.20;;;0.97;;
2408;SDS011;8463;48.094;7.970;2022-11-23T11:27:02;2.53;;;0.83;;
2408;SDS011;8463;48.094;7.970;2022-11-23T11:29:32;1.00;;;0.50;;
2408;SDS011;8463;48.094;7.970;2022-11-23T11:32:03;0.80;;;0.60;;
2408;SDS011;8463;48.094;7.970;2022-11-23T11:34:43;0.60;;;0.50;;
2408;SDS011;8463;48.094;7.970;2022-11-23T11:37:51;0.90;;;0.50;;
2408;SDS011;8463;48.094;7.970;2022-11-23T11:46:02;1.00;;;0.80;;
2408;SDS011;8463;48.094;7.970;2022-11-23T11:51:47;1.80;;;0.77;;
2408;SDS011;8463;48.094;7.970;2022-11-23T11:57:23;1.73;;;0.90;;
2408;SDS011;8463;48.094;7.970;2022-11-23T11:59:56;1.60;;;0.57;;
2408;SDS011;8463;48.094;7.970;2022-11-23T12:04:57;3.90;;;1.03;;
2408;SDS011;8463;48.094;7.970;2022-11-23T12:07:31;3.70;;;1.30;;
2408;SDS011;8463;48.094;7.970;2022-11-23T12:13:08;1.80;;;0.80;;
2408;SDS011;8463;48.094;7.970;2022-11-23T12:15:42;1.93;;;1.30;;
2408;SDS011;8463;48.094;7.970;2022-11-23T12:18:26;2.30;;;1.10;;
2408;SDS011;8463;48.094;7.970;2022-11-23T12:21:03;1.17;;;0.77;;
2408;SDS011;8463;48.094;7.970;2022-11-23T12:29:30;1.17;;;0.90;;
2408;SDS011;8463;48.094;7.970;2022-11-23T12:32:08;1.77;;;0.60;;
2408;SDS011;8463;48.094;7.970;2022-11-23T12:40:27;1.33;;;1.00;;
2408;SDS011;8463;48.094;7.970;2022-11-23T12:43:48;1.17;;;0.90;;
2408;SDS011;8463;48.094;7.970;2022-11-23T12:51:53;0.77;;;0.60;;
2408;SDS011;8463;48.094;7.970;2022-11-23T12:57:21;0.87;;;0.60;;
2408;SDS011;8463;48.094;7.970;2022-11-23T13:02:33;0.60;;;0.43;;
2408;SDS011;8463;48.094;7.970;2022-11-23T13:16:34;0.90;;;0.60;;
2408;SDS011;8463;48.094;7.970;2022-11-23T13:21:43;2.20;;;0.80;;
2408;SDS011;8463;48.094;7.970;2022-11-23T13:24:29;0.50;;;0.40;;
2408;SDS011;8463;48.094;7.970;2022-11-23T13:29:45;2.20;;;1.13;;
2408;SDS011;8463;48.094;7.970;2022-11-23T13:40:21;0.70;;;0.60;;
2408;SDS011;8463;48.094;7.970;2022-11-23T13:42:47;1.63;;;1.00;;
2408;SDS011;8463;48.094;7.970;2022-11-23T13:45:25;0.90;;;0.70;;
2408;SDS011;8463;48.094;7.970;2022-11-23T13:50:31;2.30;;;0.83;;
2408;SDS011;8463;48.094;7.970;2022-11-23T13:52:58;2.10;;;1.07;;
2408;SDS011;8463;48.094;7.970;2022-11-23T13:55:34;1.10;;;1.00;;
2408;SDS011;8463;48.094;7.970;2022-11-23T14:08:43;2.97;;;1.43;;
2408;SDS011;8463;48.094;7.970;2022-11-23T14:11:11;1.07;;;0.73;;
2408;SDS011;8463;48.094;7.970;2022-11-23T14:13:44;0.60;;;0.50;;
2408;SDS011;8463;48.094;7.970;2022-11-23T14:16:22;1.10;;;0.63;;
2408;SDS011;8463;48.094;7.970;2022-11-23T14:27:30;1.00;;;0.90;;
2408;SDS011;8463;48.094;7.970;2022-11-23T14:30:29;1.33;;;1.00;;
2408;SDS011;8463;48.094;7.970;2022-11-23T14:33:12;1.60;;;1.10;;
2408;SDS011;8463;48.094;7.970;2022-11-23T14:36:53;1.43;;;0.83;;
2408;SDS011;8463;48.094;7.970;2022-11-23T14:39:14;2.37;;;0.90;;
2408;SDS011;8463;48.094;7.970;2022-11-23T14:41:44;4.20;;;1.00;;
2408;SDS011;8463;48.094;7.970;2022-11-23T14:44:14;1.83;;;0.90;;
2408;SDS011;8463;48.094;7.970;2022-11-23T14:49:49;1.30;;;1.10;;
2408;SDS011;8463;48.094;7.970;2022-11-23T14:52:19;2.00;;;1.27;;
2408;SDS011;8463;48.094;7.970;2022-11-23T14:54:50;3.70;;;1.83;;
2408;SDS011;8463;48.094;7.970;2022-11-23T14:57:18;1.63;;;1.50;;
2408;SDS011;8463;48.094;7.970;2022-11-23T14:59:48;1.27;;;0.70;;
2408;SDS011;8463;48.094;7.970;2022-11-23T15:02:32;2.20;;;1.67;;
2408;SDS011;8463;48.094;7.970;2022-11-23T15:05:02;4.47;;;1.37;;
2408;SDS011;8463;48.094;7.970;2022-11-23T15:10:31;2.50;;;1.50;;
2408;SDS011;8463;48.094;7.970;2022-11-23T15:13:01;2.37;;;1.57;;
2408;SDS011;8463;48.094;7.970;2022-11-23T15:15:38;2.83;;;2.40;;
2408;SDS011;8463;48.094;7.970;2022-11-23T15:18:09;1.00;;;0.90;;
2408;SDS011;8463;48.094;7.970;2022-11-23T15:20:40;0.90;;;0.70;;
2408;SDS011;8463;48.094;7.970;2022-11-23T15:23:17;1.10;;;1.00;;
2408;SDS011;8463;48.094;7.970;2022-11-23T15:25:52;0.70;;;0.60;;
2408;SDS011;8463;48.094;7.970;2022-11-23T15:28:21;1.10;;;0.77;;
2408;SDS011;8463;48.094;7.970;2022-11-23T15:30:51;0.90;;;0.80;;
2408;SDS011;8463;48.094;7.970;2022-11-23T15:33:17;2.70;;;0.70;;
2408;SDS011;8463;48.094;7.970;2022-11-23T15:35:44;2.37;;;0.70;;
2408;SDS011;8463;48.094;7.970;2022-11-23T15:38:11;2.23;;;1.37;;
2408;SDS011;8463;48.094;7.970;2022-11-23T15:40:43;1.67;;;1.40;;
2408;SDS011;8463;48.094;7.970;2022-11-23T15:43:13;2.60;;;2.33;;
2408;SDS011;8463;48.094;7.970;2022-11-23T15:48:28;3.67;;;1.33;;
2408;SDS011;8463;48.094;7.970;2022-11-23T15:50:58;4.03;;;2.20;;
2408;SDS011;8463;48.094;7.970;2022-11-23T15:53:27;2.93;;;1.77;;
2408;SDS011;8463;48.094;7.970;2022-11-23T15:55:59;6.87;;;4.67;;
2408;SDS011;8463;48.094;7.970;2022-11-23T15:58:27;7.40;;;4.37;;
2408;SDS011;8463;48.094;7.970;2022-11-23T16:03:58;3.80;;;3.40;;
2408;SDS011;8463;48.094;7.970;2022-11-23T16:12:22;11.37;;;8.43;;
2408;SDS011;8463;48.094;7.970;2022-11-23T16:14:50;12.83;;;9.97;;
2408;SDS011;8463;48.094;7.970;2022-11-23T16:17:20;9.87;;;6.00;;
2408;SDS011;8463;48.094;7.970;2022-11-23T16:19:57;5.87;;;4.37;;
2408;SDS011;8463;48.094;7.970;2022-11-23T16:22:27;6.10;;;4.13;;
2408;SDS011;8463;48.094;7.970;2022-11-23T16:25:07;6.47;;;5.40;;
2408;SDS011;8463;48.094;7.970;2022-11-23T16:27:40;13.20;;;8.90;;
2408;SDS011;8463;48.094;7.970;2022-11-23T16:30:21;31.03;;;22.50;;
2408;SDS011;8463;48.094;7.970;2022-11-23T16:32:51;17.13;;;12.50;;
2408;SDS011;8463;48.094;7.970;2022-11-23T16:35:17;33.37;;;23.30;;
2408;SDS011;8463;48.094;7.970;2022-11-23T16:37:44;43.13;;;29.00;;
2408;SDS011;8463;48.094;7.970;2022-11-23T16:40:10;11.23;;;8.30;;
2408;SDS011;8463;48.094;7.970;2022-11-23T16:42:37;7.77;;;5.10;;
2408;SDS011;8463;48.094;7.970;2022-11-23T16:45:04;6.70;;;6.10;;
2408;SDS011;8463;48.094;7.970;2022-11-23T16:47:30;8.10;;;5.50;;
2408;SDS011;8463;48.094;7.970;2022-11-23T16:49:56;7.07;;;6.17;;
2408;SDS011;8463;48.094;7.970;2022-11-23T16:52:22;5.80;;;5.20;;
2408;SDS011;8463;48.094;7.970;2022-11-23T16:54:48;5.37;;;4.00;;
2408;SDS011;8463;48.094;7.970;2022-11-23T16:57:35;4.70;;;4.20;;
2408;SDS011;8463;48.094;7.970;2022-11-23T17:00:02;5.67;;;5.10;;
2408;SDS011;8463;48.094;7.970;2022-11-23T17:02:30;8.23;;;5.60;;
2408;SDS011;8463;48.094;7.970;2022-11-23T17:04:55;8.63;;;7.87;;
2408;SDS011;8463;48.094;7.970;2022-11-23T17:07:21;7.90;;;7.10;;
2408;SDS011;8463;48.094;7.970;2022-11-23T17:09:47;5.90;;;4.50;;
2408;SDS011;8463;48.094;7.970;2022-11-23T17:12:14;1.97;;;1.77;;
2408;SDS011;8463;48.094;7.970;2022-11-23T17:14:44;4.57;;;3.30;;
2408;SDS011;8463;48.094;7.970;2022-11-23T17:17:16;5.97;;;5.37;;
2408;SDS011;8463;48.094;7.970;2022-11-23T17:19:50;3.60;;;3.30;;
2408;SDS011;8463;48.094;7.970;2022-11-23T17:22:16;3.97;;;3.60;;
2408;SDS011;8463;48.094;7.970;2022-11-23T17:24:43;4.30;;;3.87;;
2408;SDS011;8463;48.094;7.970;2022-11-23T17:27:11;3.80;;;3.40;;
2408;SDS011;8463;48.094;7.970;2022-11-23T17:29:39;14.17;;;7.97;;
2408;SDS011;8463;48.094;7.970;2022-11-23T17:32:07;13.77;;;8.63;;
2408;SDS011;8463;48.094;7.970;2022-11-23T17:34:34;4.10;;;3.17;;
2408;SDS011;8463;48.094;7.970;2022-11-23T17:37:00;6.50;;;5.00;;
2408;SDS011;8463;48.094;7.970;2022-11-23T17:39:26;5.77;;;5.00;;